sensor_id;sensor_type;location;lat;lon;timestamp;P1;durP1;ratioP1;P2;durP2;ratioP2
69401;SDS011;56589;51.992;5.924;2024-02-21T00:00:53;23.58;;;8.82;;
69401;SDS011;56589;51.992;5.924;2024-02-21T00:03:19;21.70;;;8.55;;
69401;SDS011;56589;51.992;5.924;2024-02-21T00:05:48;23.67;;;9.60;;
69401;SDS011;56589;51.992;5.924;2024-02-21T00:08:13;18.83;;;9.10;;
69401;SDS011;56589;51.992;5.924;2024-02-21T00:10:39;22.60;;;9.32;;
69401;SDS011;56589;51.992;5.924;2024-02-21T00:13:05;22.95;;;9.15;;
69401;SDS011;56589;51.992;5.924;2024-02-21T00:15:31;23.65;;;9.63;;
69401;SDS011;56589;51.992;5.924;2024-02-21T00:17:57;18.45;;;8.95;;
69401;SDS011;56589;51.992;5.924;2024-02-21T00:20:22;23.55;;;9.50;;
69401;SDS011;56589;51.992;5.924;2024-02-21T00:22:51;22.17;;;9.30;;
69401;SDS011;56589;51.992;5.924;2024-02-21T00:25:17;21.33;;;8.63;;
69401;SDS011;56589;51.992;5.924;2024-02-21T00:27:43;24.75;;;9.02;;
69401;SDS011;56589;51.992;5.924;2024-02-21T00:30:12;20.20;;;9.07;;
69401;SDS011;56589;51.992;5.924;2024-02-21T00:32:38;24.60;;;9.20;;
69401;SDS011;56589;51.992;5.924;2024-02-21T00:35:04;22.70;;;8.88;;
69401;SDS011;56589;51.992;5.924;2024-02-21T00:37:31;21.13;;;9.27;;
69401;SDS011;56589;51.992;5.924;2024-02-21T00:39:59;22.20;;;9.75;;
69401;SDS011;56589;51.992;5.924;2024-02-21T00:42:25;17.40;;;7.80;;
69401;SDS011;56589;51.992;5.924;2024-02-21T00:44:51;19.50;;;8.60;;
69401;SDS011;56589;51.992;5.924;2024-02-21T00:47:17;19.55;;;8.07;;
69401;SDS011;56589;51.992;5.924;2024-02-21T00:49:42;22.40;;;9.18;;
69401;SDS011;56589;51.992;5.924;2024-02-21T00:52:08;21.45;;;8.95;;
69401;SDS011;56589;51.992;5.924;2024-02-21T00:54:34;27.35;;;9.18;;
69401;SDS011;56589;51.992;5.924;2024-02-21T00:57:02;23.75;;;8.85;;
69401;SDS011;56589;51.992;5.924;2024-02-21T00:59:28;22.10;;;9.18;;
69401;SDS011;56589;51.992;5.924;2024-02-21T01:01:54;20.27;;;8.55;;
69401;SDS011;56589;51.992;5.924;2024-02-21T01:04:20;23.38;;;8.38;;
69401;SDS011;56589;51.992;5.924;2024-02-21T01:06:46;22.27;;;8.20;;
69401;SDS011;56589;51.992;5.924;2024-02-21T01:09:12;17.75;;;7.90;;
69401;SDS011;56589;51.992;5.924;2024-02-21T01:11:37;17.52;;;8.55;;
69401;SDS011;56589;51.992;5.924;2024-02-21T01:14:06;16.70;;;8.15;;
69401;SDS011;56589;51.992;5.924;2024-02-21T01:16:32;26.67;;;9.05;;
69401;SDS011;56589;51.992;5.924;2024-02-21T01:18:57;23.77;;;8.07;;
69401;SDS011;56589;51.992;5.924;2024-02-21T01:21:23;22.58;;;8.73;;
69401;SDS011;56589;51.992;5.924;2024-02-21T01:23:49;18.48;;;8.75;;
69401;SDS011;56589;51.992;5.924;2024-02-21T01:26:15;22.70;;;7.88;;
69401;SDS011;56589;51.992;5.924;2024-02-21T01:28:41;20.55;;;7.82;;
69401;SDS011;56589;51.992;5.924;2024-02-21T01:31:09;22.67;;;8.38;;
69401;SDS011;56589;51.992;5.924;2024-02-21T01:33:35;21.80;;;8.75;;
69401;SDS011;56589;51.992;5.924;2024-02-21T01:36:01;20.80;;;8.68;;
69401;SDS011;56589;51.992;5.924;2024-02-21T01:38:27;18.98;;;7.18;;
69401;SDS011;56589;51.992;5.924;2024-02-21T01:40:53;17.80;;;8.18;;
69401;SDS011;56589;51.992;5.924;2024-02-21T01:43:19;20.05;;;7.97;;
69401;SDS011;56589;51.992;5.924;2024-02-21T01:45:46;17.65;;;8.63;;
69401;SDS011;56589;51.992;5.924;2024-02-21T01:48:18;18.23;;;8.00;;
69401;SDS011;56589;51.992;5.924;2024-02-21T01:50:45;19.90;;;8.02;;
69401;SDS011;56589;51.992;5.924;2024-02-21T01:53:13;17.52;;;7.53;;
69401;SDS011;56589;51.992;5.924;2024-02-21T01:55:45;26.25;;;9.10;;
69401;SDS011;56589;51.992;5.924;2024-02-21T01:58:11;23.27;;;8.77;;
69401;SDS011;56589;51.992;5.924;2024-02-21T02:00:38;27.98;;;8.02;;
69401;SDS011;56589;51.992;5.924;2024-02-21T02:03:07;14.93;;;7.25;;
69401;SDS011;56589;51.992;5.924;2024-02-21T02:05:37;20.77;;;7.60;;
69401;SDS011;56589;51.992;5.924;2024-02-21T02:08:03;20.27;;;8.55;;
69401;SDS011;56589;51.992;5.924;2024-02-21T02:10:29;17.88;;;7.65;;
69401;SDS011;56589;51.992;5.924;2024-02-21T02:12:55;20.48;;;8.43;;
69401;SDS011;56589;51.992;5.924;2024-02-21T02:15:21;18.85;;;7.75;;
69401;SDS011;56589;51.992;5.924;2024-02-21T02:17:47;20.58;;;7.75;;
69401;SDS011;56589;51.992;5.924;2024-02-21T02:20:13;23.38;;;7.72;;
69401;SDS011;56589;51.992;5.924;2024-02-21T02:22:41;22.27;;;8.20;;
69401;SDS011;56589;51.992;5.924;2024-02-21T02:25:14;14.27;;;8.02;;
69401;SDS011;56589;51.992;5.924;2024-02-21T02:27:43;22.27;;;8.73;;
69401;SDS011;56589;51.992;5.924;2024-02-21T02:30:10;18.75;;;7.55;;
69401;SDS011;56589;51.992;5.924;2024-02-21T02:32:37;20.95;;;7.57;;
69401;SDS011;56589;51.992;5.924;2024-02-21T02:35:03;19.13;;;8.55;;
69401;SDS011;56589;51.992;5.924;2024-02-21T02:37:30;17.83;;;8.00;;
69401;SDS011;56589;51.992;5.924;2024-02-21T02:39:55;21.52;;;8.13;;
69401;SDS011;56589;51.992;5.924;2024-02-21T02:42:24;18.15;;;9.10;;
69401;SDS011;56589;51.992;5.924;2024-02-21T02:44:50;23.05;;;8.65;;
69401;SDS011;56589;51.992;5.924;2024-02-21T02:47:15;19.30;;;8.70;;
69401;SDS011;56589;51.992;5.924;2024-02-21T02:49:41;20.48;;;8.20;;
69401;SDS011;56589;51.992;5.924;2024-02-21T02:52:07;17.50;;;7.63;;
69401;SDS011;56589;51.992;5.924;2024-02-21T02:54:33;16.60;;;7.60;;
69401;SDS011;56589;51.992;5.924;2024-02-21T02:56:59;14.00;;;7.78;;
69401;SDS011;56589;51.992;5.924;2024-02-21T02:59:27;17.40;;;8.45;;
69401;SDS011;56589;51.992;5.924;2024-02-21T03:01:53;17.20;;;8.13;;
69401;SDS011;56589;51.992;5.924;2024-02-21T03:04:18;18.13;;;8.43;;
69401;SDS011;56589;51.992;5.924;2024-02-21T03:06:44;20.60;;;8.57;;
69401;SDS011;56589;51.992;5.924;2024-02-21T03:09:10;15.73;;;7.68;;
69401;SDS011;56589;51.992;5.924;2024-02-21T03:11:36;19.38;;;8.23;;
69401;SDS011;56589;51.992;5.924;2024-02-21T03:14:02;19.65;;;7.80;;
69401;SDS011;56589;51.992;5.924;2024-02-21T03:16:30;15.23;;;8.25;;
69401;SDS011;56589;51.992;5.924;2024-02-21T03:18:56;16.90;;;7.72;;
69401;SDS011;56589;51.992;5.924;2024-02-21T03:21:22;17.65;;;7.53;;
69401;SDS011;56589;51.992;5.924;2024-02-21T03:23:48;19.60;;;7.85;;
69401;SDS011;56589;51.992;5.924;2024-02-21T03:26:13;22.58;;;9.15;;
69401;SDS011;56589;51.992;5.924;2024-02-21T03:28:39;14.98;;;6.78;;
69401;SDS011;56589;51.992;5.924;2024-02-21T03:31:05;18.27;;;8.40;;
69401;SDS011;56589;51.992;5.924;2024-02-21T03:33:33;21.80;;;7.88;;
69401;SDS011;56589;51.992;5.924;2024-02-21T03:35:59;18.75;;;7.88;;
69401;SDS011;56589;51.992;5.924;2024-02-21T03:38:25;17.30;;;7.10;;
69401;SDS011;56589;51.992;5.924;2024-02-21T03:40:51;19.58;;;7.53;;
69401;SDS011;56589;51.992;5.924;2024-02-21T03:43:16;22.20;;;8.20;;
69401;SDS011;56589;51.992;5.924;2024-02-21T03:45:42;24.65;;;7.50;;
69401;SDS011;56589;51.992;5.924;2024-02-21T03:48:08;14.60;;;7.32;;
69401;SDS011;56589;51.992;5.924;2024-02-21T03:50:36;17.20;;;7.20;;
69401;SDS011;56589;51.992;5.924;2024-02-21T03:53:02;14.15;;;7.43;;
69401;SDS011;56589;51.992;5.924;2024-02-21T03:55:28;15.90;;;6.95;;
69401;SDS011;56589;51.992;5.924;2024-02-21T03:57:54;18.08;;;7.05;;
69401;SDS011;56589;51.992;5.924;2024-02-21T04:00:20;15.10;;;7.00;;
69401;SDS011;56589;51.992;5.924;2024-02-21T04:02:46;13.75;;;5.78;;
69401;SDS011;56589;51.992;5.924;2024-02-21T04:05:14;18.30;;;6.15;;
69401;SDS011;56589;51.992;5.924;2024-02-21T04:07:43;14.70;;;6.18;;
69401;SDS011;56589;51.992;5.924;2024-02-21T04:10:09;16.77;;;6.07;;
69401;SDS011;56589;51.992;5.924;2024-02-21T04:12:35;14.52;;;6.60;;
69401;SDS011;56589;51.992;5.924;2024-02-21T04:15:01;13.50;;;6.25;;
69401;SDS011;56589;51.992;5.924;2024-02-21T04:17:26;22.30;;;6.43;;
69401;SDS011;56589;51.992;5.924;2024-02-21T04:19:53;18.48;;;5.88;;
69401;SDS011;56589;51.992;5.924;2024-02-21T04:22:29;18.90;;;7.03;;
69401;SDS011;56589;51.992;5.924;2024-02-21T04:24:57;18.17;;;5.82;;
69401;SDS011;56589;51.992;5.924;2024-02-21T04:27:24;13.23;;;5.30;;
69401;SDS011;56589;51.992;5.924;2024-02-21T04:29:50;13.40;;;5.13;;
69401;SDS011;56589;51.992;5.924;2024-02-21T04:32:17;15.45;;;5.72;;
69401;SDS011;56589;51.992;5.924;2024-02-21T04:34:42;16.65;;;5.40;;
69401;SDS011;56589;51.992;5.924;2024-02-21T04:37:08;17.77;;;5.93;;
69401;SDS011;56589;51.992;5.924;2024-02-21T04:39:34;18.70;;;6.80;;
69401;SDS011;56589;51.992;5.924;2024-02-21T04:42:02;12.45;;;4.88;;
69401;SDS011;56589;51.992;5.924;2024-02-21T04:44:29;12.63;;;4.55;;
69401;SDS011;56589;51.992;5.924;2024-02-21T04:46:54;15.27;;;4.97;;
69401;SDS011;56589;51.992;5.924;2024-02-21T04:49:20;11.75;;;4.80;;
69401;SDS011;56589;51.992;5.924;2024-02-21T04:51:46;11.30;;;4.93;;
69401;SDS011;56589;51.992;5.924;2024-02-21T04:54:12;13.55;;;4.68;;
69401;SDS011;56589;51.992;5.924;2024-02-21T04:56:37;12.35;;;5.50;;
69401;SDS011;56589;51.992;5.924;2024-02-21T04:59:06;11.30;;;5.35;;
69401;SDS011;56589;51.992;5.924;2024-02-21T05:01:32;15.50;;;5.25;;
69401;SDS011;56589;51.992;5.924;2024-02-21T05:03:57;13.63;;;5.45;;
69401;SDS011;56589;51.992;5.924;2024-02-21T05:06:23;13.35;;;4.93;;
69401;SDS011;56589;51.992;5.924;2024-02-21T05:08:49;14.52;;;4.75;;
69401;SDS011;56589;51.992;5.924;2024-02-21T05:11:15;15.90;;;4.90;;
69401;SDS011;56589;51.992;5.924;2024-02-21T05:13:40;11.18;;;4.68;;
69401;SDS011;56589;51.992;5.924;2024-02-21T05:16:09;12.65;;;5.20;;
69401;SDS011;56589;51.992;5.924;2024-02-21T05:18:35;9.00;;;4.82;;
69401;SDS011;56589;51.992;5.924;2024-02-21T05:21:01;10.73;;;5.60;;
69401;SDS011;56589;51.992;5.924;2024-02-21T05:23:26;10.48;;;6.20;;
69401;SDS011;56589;51.992;5.924;2024-02-21T05:25:52;14.07;;;5.55;;
69401;SDS011;56589;51.992;5.924;2024-02-21T05:28:18;14.35;;;5.97;;
69401;SDS011;56589;51.992;5.924;2024-02-21T05:30:44;15.80;;;5.53;;
69401;SDS011;56589;51.992;5.924;2024-02-21T05:33:12;12.55;;;6.03;;
69401;SDS011;56589;51.992;5.924;2024-02-21T05:35:38;15.13;;;6.55;;
69401;SDS011;56589;51.992;5.924;2024-02-21T05:38:04;17.85;;;6.30;;
69401;SDS011;56589;51.992;5.924;2024-02-21T05:40:29;20.58;;;7.28;;
69401;SDS011;56589;51.992;5.924;2024-02-21T05:42:55;13.85;;;7.05;;
69401;SDS011;56589;51.992;5.924;2024-02-21T05:45:21;19.35;;;7.75;;
69401;SDS011;56589;51.992;5.924;2024-02-21T05:47:47;16.40;;;7.13;;
69401;SDS011;56589;51.992;5.924;2024-02-21T05:50:15;13.13;;;6.47;;
69401;SDS011;56589;51.992;5.924;2024-02-21T05:52:41;17.27;;;6.82;;
69401;SDS011;56589;51.992;5.924;2024-02-21T05:55:07;14.88;;;7.00;;
69401;SDS011;56589;51.992;5.924;2024-02-21T05:57:33;13.70;;;6.18;;
69401;SDS011;56589;51.992;5.924;2024-02-21T05:59:59;21.55;;;8.32;;
69401;SDS011;56589;51.992;5.924;2024-02-21T06:02:25;11.73;;;6.28;;
69401;SDS011;56589;51.992;5.924;2024-02-21T06:04:50;21.02;;;7.20;;
69401;SDS011;56589;51.992;5.924;2024-02-21T06:07:19;18.23;;;7.20;;
69401;SDS011;56589;51.992;5.924;2024-02-21T06:09:45;14.38;;;6.68;;
69401;SDS011;56589;51.992;5.924;2024-02-21T06:12:10;13.98;;;7.22;;
69401;SDS011;56589;51.992;5.924;2024-02-21T06:14:36;15.52;;;7.28;;
69401;SDS011;56589;51.992;5.924;2024-02-21T06:17:02;13.90;;;6.70;;
69401;SDS011;56589;51.992;5.924;2024-02-21T06:19:28;11.30;;;6.18;;
69401;SDS011;56589;51.992;5.924;2024-02-21T06:21:54;14.27;;;6.90;;
69401;SDS011;56589;51.992;5.924;2024-02-21T06:24:22;17.13;;;6.45;;
69401;SDS011;56589;51.992;5.924;2024-02-21T06:26:48;13.45;;;7.47;;
69401;SDS011;56589;51.992;5.924;2024-02-21T06:29:14;15.00;;;6.70;;
69401;SDS011;56589;51.992;5.924;2024-02-21T06:31:40;12.60;;;6.68;;
69401;SDS011;56589;51.992;5.924;2024-02-21T06:34:06;18.48;;;5.82;;
69401;SDS011;56589;51.992;5.924;2024-02-21T06:36:31;16.15;;;6.88;;
69401;SDS011;56589;51.992;5.924;2024-02-21T06:38:58;10.48;;;5.07;;
69401;SDS011;56589;51.992;5.924;2024-02-21T06:41:27;17.08;;;6.28;;
69401;SDS011;56589;51.992;5.924;2024-02-21T06:43:53;14.05;;;5.60;;
69401;SDS011;56589;51.992;5.924;2024-02-21T06:46:25;16.77;;;6.32;;
69401;SDS011;56589;51.992;5.924;2024-02-21T06:48:52;15.45;;;5.72;;
69401;SDS011;56589;51.992;5.924;2024-02-21T06:51:18;12.50;;;5.68;;
69401;SDS011;56589;51.992;5.924;2024-02-21T06:53:44;16.13;;;6.55;;
69401;SDS011;56589;51.992;5.924;2024-02-21T06:56:10;12.60;;;5.32;;
69401;SDS011;56589;51.992;5.924;2024-02-21T06:58:39;11.10;;;6.28;;
69401;SDS011;56589;51.992;5.924;2024-02-21T07:01:04;14.07;;;5.68;;
69401;SDS011;56589;51.992;5.924;2024-02-21T07:03:31;16.75;;;5.65;;
69401;SDS011;56589;51.992;5.924;2024-02-21T07:05:56;13.70;;;6.47;;
69401;SDS011;56589;51.992;5.924;2024-02-21T07:08:22;15.75;;;5.75;;
69401;SDS011;56589;51.992;5.924;2024-02-21T07:10:48;13.73;;;6.40;;
69401;SDS011;56589;51.992;5.924;2024-02-21T07:13:16;12.10;;;5.90;;
69401;SDS011;56589;51.992;5.924;2024-02-21T07:15:44;18.17;;;6.22;;
69401;SDS011;56589;51.992;5.924;2024-02-21T07:18:12;15.00;;;5.72;;
69401;SDS011;56589;51.992;5.924;2024-02-21T07:20:38;17.13;;;6.10;;
69401;SDS011;56589;51.992;5.924;2024-02-21T07:23:04;9.23;;;5.22;;
69401;SDS011;56589;51.992;5.924;2024-02-21T07:25:30;15.43;;;5.65;;
69401;SDS011;56589;51.992;5.924;2024-02-21T07:27:57;12.40;;;5.93;;
69401;SDS011;56589;51.992;5.924;2024-02-21T07:30:25;15.18;;;5.82;;
69401;SDS011;56589;51.992;5.924;2024-02-21T07:32:56;14.63;;;5.85;;
69401;SDS011;56589;51.992;5.924;2024-02-21T07:35:22;17.30;;;6.68;;
69401;SDS011;56589;51.992;5.924;2024-02-21T07:37:48;14.40;;;5.80;;
69401;SDS011;56589;51.992;5.924;2024-02-21T07:40:14;14.65;;;6.05;;
69401;SDS011;56589;51.992;5.924;2024-02-21T07:42:42;15.05;;;5.18;;
69401;SDS011;56589;51.992;5.924;2024-02-21T07:45:09;14.68;;;5.80;;
69401;SDS011;56589;51.992;5.924;2024-02-21T07:47:35;15.60;;;5.60;;
69401;SDS011;56589;51.992;5.924;2024-02-21T07:50:05;16.77;;;5.93;;
69401;SDS011;56589;51.992;5.924;2024-02-21T07:52:32;16.98;;;5.40;;
69401;SDS011;56589;51.992;5.924;2024-02-21T07:54:58;15.07;;;5.55;;
69401;SDS011;56589;51.992;5.924;2024-02-21T07:57:24;15.02;;;5.97;;
69401;SDS011;56589;51.992;5.924;2024-02-21T07:59:50;10.23;;;5.35;;
69401;SDS011;56589;51.992;5.924;2024-02-21T08:02:16;15.15;;;6.18;;
69401;SDS011;56589;51.992;5.924;2024-02-21T08:04:42;11.85;;;5.68;;
69401;SDS011;56589;51.992;5.924;2024-02-21T08:07:10;11.02;;;5.82;;
69401;SDS011;56589;51.992;5.924;2024-02-21T08:09:36;12.35;;;5.63;;
69401;SDS011;56589;51.992;5.924;2024-02-21T08:12:05;13.10;;;5.78;;
69401;SDS011;56589;51.992;5.924;2024-02-21T08:14:33;12.25;;;5.57;;
69401;SDS011;56589;51.992;5.924;2024-02-21T08:16:58;13.95;;;5.78;;
69401;SDS011;56589;51.992;5.924;2024-02-21T08:19:24;12.43;;;6.38;;
69401;SDS011;56589;51.992;5.924;2024-02-21T08:21:50;14.65;;;6.32;;
69401;SDS011;56589;51.992;5.924;2024-02-21T08:24:22;13.88;;;6.05;;
69401;SDS011;56589;51.992;5.924;2024-02-21T08:26:47;11.75;;;5.72;;
69401;SDS011;56589;51.992;5.924;2024-02-21T08:29:13;10.40;;;6.05;;
69401;SDS011;56589;51.992;5.924;2024-02-21T08:31:39;13.50;;;6.00;;
69401;SDS011;56589;51.992;5.924;2024-02-21T08:34:05;14.57;;;5.80;;
69401;SDS011;56589;51.992;5.924;2024-02-21T08:36:31;18.00;;;6.00;;
69401;SDS011;56589;51.992;5.924;2024-02-21T08:38:58;13.48;;;5.93;;
69401;SDS011;56589;51.992;5.924;2024-02-21T08:41:27;16.85;;;5.82;;
69401;SDS011;56589;51.992;5.924;2024-02-21T08:43:53;15.82;;;5.20;;
69401;SDS011;56589;51.992;5.924;2024-02-21T08:46:19;15.00;;;6.43;;
69401;SDS011;56589;51.992;5.924;2024-02-21T08:48:45;13.60;;;6.10;;
69401;SDS011;56589;51.992;5.924;2024-02-21T08:51:11;13.70;;;6.53;;
69401;SDS011;56589;51.992;5.924;2024-02-21T08:53:37;14.55;;;6.40;;
69401;SDS011;56589;51.992;5.924;2024-02-21T08:56:04;13.02;;;6.28;;
69401;SDS011;56589;51.992;5.924;2024-02-21T08:58:34;16.42;;;6.25;;
69401;SDS011;56589;51.992;5.924;2024-02-21T09:01:00;15.95;;;6.30;;
69401;SDS011;56589;51.992;5.924;2024-02-21T09:03:26;11.65;;;5.80;;
69401;SDS011;56589;51.992;5.924;2024-02-21T09:05:52;11.90;;;5.55;;
69401;SDS011;56589;51.992;5.924;2024-02-21T09:08:18;12.93;;;5.90;;
69401;SDS011;56589;51.992;5.924;2024-02-21T09:10:44;15.68;;;6.03;;
69401;SDS011;56589;51.992;5.924;2024-02-21T09:13:10;10.93;;;5.65;;
69401;SDS011;56589;51.992;5.924;2024-02-21T09:15:38;11.00;;;4.97;;
69401;SDS011;56589;51.992;5.924;2024-02-21T09:18:04;13.05;;;5.78;;
69401;SDS011;56589;51.992;5.924;2024-02-21T09:20:32;15.48;;;6.07;;
69401;SDS011;56589;51.992;5.924;2024-02-21T09:22:58;10.63;;;5.40;;
69401;SDS011;56589;51.992;5.924;2024-02-21T09:25:24;13.35;;;5.45;;
69401;SDS011;56589;51.992;5.924;2024-02-21T09:27:50;10.13;;;5.45;;
69401;SDS011;56589;51.992;5.924;2024-02-21T09:30:16;10.32;;;5.38;;
69401;SDS011;56589;51.992;5.924;2024-02-21T09:32:44;9.02;;;4.90;;
69401;SDS011;56589;51.992;5.924;2024-02-21T09:35:10;12.05;;;5.72;;
69401;SDS011;56589;51.992;5.924;2024-02-21T09:37:36;12.63;;;5.13;;
69401;SDS011;56589;51.992;5.924;2024-02-21T09:40:02;10.60;;;5.22;;
69401;SDS011;56589;51.992;5.924;2024-02-21T09:42:30;13.02;;;5.75;;
69401;SDS011;56589;51.992;5.924;2024-02-21T09:45:03;13.60;;;5.63;;
69401;SDS011;56589;51.992;5.924;2024-02-21T09:47:40;12.05;;;5.57;;
69401;SDS011;56589;51.992;5.924;2024-02-21T09:50:24;9.38;;;5.25;;
69401;SDS011;56589;51.992;5.924;2024-02-21T09:52:54;11.15;;;4.57;;
69401;SDS011;56589;51.992;5.924;2024-02-21T09:55:21;9.07;;;4.63;;
69401;SDS011;56589;51.992;5.924;2024-02-21T09:57:48;8.20;;;4.30;;
69401;SDS011;56589;51.992;5.924;2024-02-21T10:00:17;9.48;;;4.13;;
69401;SDS011;56589;51.992;5.924;2024-02-21T10:02:46;9.05;;;4.45;;
69401;SDS011;56589;51.992;5.924;2024-02-21T10:05:12;9.20;;;4.82;;
69401;SDS011;56589;51.992;5.924;2024-02-21T10:07:38;9.82;;;5.18;;
69401;SDS011;56589;51.992;5.924;2024-02-21T10:10:04;12.88;;;4.82;;
69401;SDS011;56589;51.992;5.924;2024-02-21T10:12:31;7.03;;;4.03;;
69401;SDS011;56589;51.992;5.924;2024-02-21T10:15:00;11.05;;;4.18;;
69401;SDS011;56589;51.992;5.924;2024-02-21T10:17:26;7.05;;;4.50;;
69401;SDS011;56589;51.992;5.924;2024-02-21T10:19:55;8.38;;;4.10;;
69401;SDS011;56589;51.992;5.924;2024-02-21T10:22:31;7.07;;;4.32;;
69401;SDS011;56589;51.992;5.924;2024-02-21T10:25:06;9.63;;;4.93;;
69401;SDS011;56589;51.992;5.924;2024-02-21T10:27:32;8.63;;;3.95;;
69401;SDS011;56589;51.992;5.924;2024-02-21T10:29:58;6.35;;;3.97;;
69401;SDS011;56589;51.992;5.924;2024-02-21T10:32:24;6.40;;;3.67;;
69401;SDS011;56589;51.992;5.924;2024-02-21T10:34:50;9.00;;;4.35;;
69401;SDS011;56589;51.992;5.924;2024-02-21T10:37:30;7.28;;;4.03;;
69401;SDS011;56589;51.992;5.924;2024-02-21T10:39:56;7.82;;;3.30;;
69401;SDS011;56589;51.992;5.924;2024-02-21T10:42:22;6.55;;;4.05;;
69401;SDS011;56589;51.992;5.924;2024-02-21T10:44:48;8.63;;;4.22;;
69401;SDS011;56589;51.992;5.924;2024-02-21T10:47:16;5.63;;;3.70;;
69401;SDS011;56589;51.992;5.924;2024-02-21T10:49:43;6.38;;;4.30;;
69401;SDS011;56589;51.992;5.924;2024-02-21T10:52:14;6.65;;;3.17;;
69401;SDS011;56589;51.992;5.924;2024-02-21T10:54:55;5.35;;;3.03;;
69401;SDS011;56589;51.992;5.924;2024-02-21T10:57:26;6.32;;;3.70;;
69401;SDS011;56589;51.992;5.924;2024-02-21T10:59:54;6.60;;;3.35;;
69401;SDS011;56589;51.992;5.924;2024-02-21T11:02:23;7.55;;;3.53;;
69401;SDS011;56589;51.992;5.924;2024-02-21T11:04:49;7.85;;;3.63;;
69401;SDS011;56589;51.992;5.924;2024-02-21T11:07:21;11.10;;;4.30;;
69401;SDS011;56589;51.992;5.924;2024-02-21T11:09:50;6.57;;;3.17;;
69401;SDS011;56589;51.992;5.924;2024-02-21T11:12:19;4.72;;;3.40;;
69401;SDS011;56589;51.992;5.924;2024-02-21T11:14:47;6.13;;;4.25;;
69401;SDS011;56589;51.992;5.924;2024-02-21T11:17:16;8.70;;;4.45;;
69401;SDS011;56589;51.992;5.924;2024-02-21T11:19:43;10.88;;;4.20;;
69401;SDS011;56589;51.992;5.924;2024-02-21T11:22:14;7.43;;;4.45;;
69401;SDS011;56589;51.992;5.924;2024-02-21T11:24:43;6.47;;;3.90;;
69401;SDS011;56589;51.992;5.924;2024-02-21T11:27:11;9.85;;;4.25;;
69401;SDS011;56589;51.992;5.924;2024-02-21T11:29:40;7.95;;;4.63;;
69401;SDS011;56589;51.992;5.924;2024-02-21T11:32:09;6.80;;;3.80;;
69401;SDS011;56589;51.992;5.924;2024-02-21T11:34:35;14.35;;;4.32;;
69401;SDS011;56589;51.992;5.924;2024-02-21T11:37:01;7.45;;;4.00;;
69401;SDS011;56589;51.992;5.924;2024-02-21T11:39:38;11.63;;;3.88;;
69401;SDS011;56589;51.992;5.924;2024-02-21T11:42:08;8.40;;;3.80;;
69401;SDS011;56589;51.992;5.924;2024-02-21T11:44:35;8.85;;;4.30;;
69401;SDS011;56589;51.992;5.924;2024-02-21T11:47:05;9.32;;;4.38;;
69401;SDS011;56589;51.992;5.924;2024-02-21T11:49:36;9.25;;;4.20;;
69401;SDS011;56589;51.992;5.924;2024-02-21T11:52:04;11.25;;;4.65;;
69401;SDS011;56589;51.992;5.924;2024-02-21T11:54:31;7.75;;;3.92;;
69401;SDS011;56589;51.992;5.924;2024-02-21T11:56:57;10.23;;;4.30;;
69401;SDS011;56589;51.992;5.924;2024-02-21T11:59:25;7.45;;;4.43;;
69401;SDS011;56589;51.992;5.924;2024-02-21T12:01:52;11.52;;;4.40;;
69401;SDS011;56589;51.992;5.924;2024-02-21T12:04:18;9.48;;;4.20;;
69401;SDS011;56589;51.992;5.924;2024-02-21T12:06:47;10.15;;;4.50;;
69401;SDS011;56589;51.992;5.924;2024-02-21T12:09:13;8.02;;;4.35;;
69401;SDS011;56589;51.992;5.924;2024-02-21T12:11:39;11.00;;;4.35;;
69401;SDS011;56589;51.992;5.924;2024-02-21T12:14:05;10.98;;;4.22;;
69401;SDS011;56589;51.992;5.924;2024-02-21T12:16:34;8.38;;;3.85;;
69401;SDS011;56589;51.992;5.924;2024-02-21T12:19:01;10.48;;;4.30;;
69401;SDS011;56589;51.992;5.924;2024-02-21T12:21:27;8.32;;;3.75;;
69401;SDS011;56589;51.992;5.924;2024-02-21T12:23:56;7.50;;;3.83;;
69401;SDS011;56589;51.992;5.924;2024-02-21T12:26:22;10.20;;;3.58;;
69401;SDS011;56589;51.992;5.924;2024-02-21T12:28:48;8.07;;;3.50;;
69401;SDS011;56589;51.992;5.924;2024-02-21T12:31:14;7.20;;;3.75;;
69401;SDS011;56589;51.992;5.924;2024-02-21T12:33:43;7.32;;;3.42;;
69401;SDS011;56589;51.992;5.924;2024-02-21T12:36:09;7.78;;;3.58;;
69401;SDS011;56589;51.992;5.924;2024-02-21T12:38:35;11.55;;;3.92;;
69401;SDS011;56589;51.992;5.924;2024-02-21T12:41:01;8.30;;;3.25;;
69401;SDS011;56589;51.992;5.924;2024-02-21T12:43:27;12.25;;;3.92;;
69401;SDS011;56589;51.992;5.924;2024-02-21T12:45:56;7.97;;;3.95;;
69401;SDS011;56589;51.992;5.924;2024-02-21T12:48:22;9.32;;;3.30;;
69401;SDS011;56589;51.992;5.924;2024-02-21T12:50:50;8.38;;;3.55;;
69401;SDS011;56589;51.992;5.924;2024-02-21T12:53:16;9.35;;;3.40;;
69401;SDS011;56589;51.992;5.924;2024-02-21T12:55:43;6.65;;;3.00;;
69401;SDS011;56589;51.992;5.924;2024-02-21T12:58:09;6.43;;;3.00;;
69401;SDS011;56589;51.992;5.924;2024-02-21T13:00:34;11.15;;;3.35;;
69401;SDS011;56589;51.992;5.924;2024-02-21T13:03:00;14.95;;;5.60;;
69401;SDS011;56589;51.992;5.924;2024-02-21T13:05:26;9.13;;;3.25;;
69401;SDS011;56589;51.992;5.924;2024-02-21T13:07:55;11.80;;;3.13;;
69401;SDS011;56589;51.992;5.924;2024-02-21T13:10:20;7.97;;;3.53;;
69401;SDS011;56589;51.992;5.924;2024-02-21T13:12:46;6.53;;;3.10;;
69401;SDS011;56589;51.992;5.924;2024-02-21T13:15:12;9.40;;;3.28;;
69401;SDS011;56589;51.992;5.924;2024-02-21T13:17:38;7.85;;;3.10;;
69401;SDS011;56589;51.992;5.924;2024-02-21T13:20:05;7.32;;;3.13;;
69401;SDS011;56589;51.992;5.924;2024-02-21T13:22:32;6.93;;;3.70;;
69401;SDS011;56589;51.992;5.924;2024-02-21T13:25:01;8.40;;;3.80;;
69401;SDS011;56589;51.992;5.924;2024-02-21T13:27:27;9.38;;;3.90;;
69401;SDS011;56589;51.992;5.924;2024-02-21T13:29:52;7.88;;;3.25;;
69401;SDS011;56589;51.992;5.924;2024-02-21T13:32:18;6.32;;;2.90;;
69401;SDS011;56589;51.992;5.924;2024-02-21T13:34:46;9.63;;;3.13;;
69401;SDS011;56589;51.992;5.924;2024-02-21T13:37:11;7.47;;;2.88;;
69401;SDS011;56589;51.992;5.924;2024-02-21T13:39:37;13.10;;;3.50;;
69401;SDS011;56589;51.992;5.924;2024-02-21T13:42:06;9.27;;;3.20;;
69401;SDS011;56589;51.992;5.924;2024-02-21T13:44:32;7.13;;;3.42;;
69401;SDS011;56589;51.992;5.924;2024-02-21T13:46:58;8.32;;;2.80;;
69401;SDS011;56589;51.992;5.924;2024-02-21T13:49:24;11.43;;;3.00;;
69401;SDS011;56589;51.992;5.924;2024-02-21T13:51:50;6.40;;;3.13;;
69401;SDS011;56589;51.992;5.924;2024-02-21T13:54:15;10.55;;;3.42;;
69401;SDS011;56589;51.992;5.924;2024-02-21T13:56:41;9.48;;;3.28;;
69401;SDS011;56589;51.992;5.924;2024-02-21T13:59:10;11.25;;;2.90;;
69401;SDS011;56589;51.992;5.924;2024-02-21T14:01:37;7.40;;;3.08;;
69401;SDS011;56589;51.992;5.924;2024-02-21T14:04:03;13.10;;;3.63;;
69401;SDS011;56589;51.992;5.924;2024-02-21T14:06:29;11.48;;;3.53;;
69401;SDS011;56589;51.992;5.924;2024-02-21T14:08:55;7.38;;;2.70;;
69401;SDS011;56589;51.992;5.924;2024-02-21T14:11:20;8.88;;;3.50;;
69401;SDS011;56589;51.992;5.924;2024-02-21T14:13:46;11.13;;;3.10;;
69401;SDS011;56589;51.992;5.924;2024-02-21T14:16:15;11.65;;;3.85;;
69401;SDS011;56589;51.992;5.924;2024-02-21T14:18:41;10.52;;;3.30;;
69401;SDS011;56589;51.992;5.924;2024-02-21T14:21:06;12.30;;;3.83;;
69401;SDS011;56589;51.992;5.924;2024-02-21T14:23:32;9.73;;;2.78;;
69401;SDS011;56589;51.992;5.924;2024-02-21T14:25:58;7.75;;;3.03;;
69401;SDS011;56589;51.992;5.924;2024-02-21T14:28:24;8.20;;;3.58;;
69401;SDS011;56589;51.992;5.924;2024-02-21T14:30:50;9.05;;;2.70;;
69401;SDS011;56589;51.992;5.924;2024-02-21T14:33:18;11.48;;;3.10;;
69401;SDS011;56589;51.992;5.924;2024-02-21T14:35:44;5.07;;;2.35;;